Terminal Aerodrome Forecast
Issued by NWS St Louis, MO

Home | Current Version | Previous Version | Text Only | Print | Product List | Glossary On
Versions: 1 2 3 4 5 6 7 8 9 10 11 12 13 14 15 16 17 18
000
FTUS43 KLSX 291135
TAFCOU
TAF
KCOU 291135Z 2912/3012 31006KT P6SM SCT040 SCT080
     FM291500 36010KT P6SM SCT040 SCT080
     FM300200 33004KT P6SM SCT150=

USA.gov is the U.S. government's official web portal to all federal, state and local government web resources and services.